sensor_id;sensor_type;location;lat;lon;timestamp;pressure;altitude;pressure_sealevel;temperature;humidity
53506;BME280;39388;50.936;6.848;2023-03-03T00:00:24;101605.47;;;2.97;71.40
53506;BME280;39388;50.936;6.848;2023-03-03T00:02:57;101606.34;;;2.97;71.40
53506;BME280;39388;50.936;6.848;2023-03-03T00:05:31;101614.09;;;3.00;71.61
53506;BME280;39388;50.936;6.848;2023-03-03T00:08:03;101620.09;;;3.01;71.17
53506;BME280;39388;50.936;6.848;2023-03-03T00:10:34;101624.38;;;3.02;71.44
53506;BME280;39388;50.936;6.848;2023-03-03T00:13:25;101628.53;;;3.00;72.02
53506;BME280;39388;50.936;6.848;2023-03-03T00:16:11;101622.50;;;2.98;71.66
53506;BME280;39388;50.936;6.848;2023-03-03T00:18:45;101615.41;;;2.90;71.82
53506;BME280;39388;50.936;6.848;2023-03-03T00:21:31;101627.28;;;2.90;72.26
53506;BME280;39388;50.936;6.848;2023-03-03T00:24:21;101625.41;;;2.86;72.32
53506;BME280;39388;50.936;6.848;2023-03-03T00:26:54;101623.56;;;2.82;72.52
53506;BME280;39388;50.936;6.848;2023-03-03T00:34:45;101623.09;;;2.71;72.36
53506;BME280;39388;50.936;6.848;2023-03-03T00:37:26;101622.97;;;2.68;72.92
53506;BME280;39388;50.936;6.848;2023-03-03T00:40:22;101626.13;;;2.62;72.91
53506;BME280;39388;50.936;6.848;2023-03-03T00:42:57;101618.09;;;2.53;72.74
53506;BME280;39388;50.936;6.848;2023-03-03T00:45:43;101637.72;;;2.55;72.69
53506;BME280;39388;50.936;6.848;2023-03-03T00:50:53;101637.44;;;2.49;72.86
53506;BME280;39388;50.936;6.848;2023-03-03T00:53:26;101634.91;;;2.49;73.23
53506;BME280;39388;50.936;6.848;2023-03-03T00:55:56;101638.16;;;2.45;73.25
53506;BME280;39388;50.936;6.848;2023-03-03T00:58:27;101633.72;;;2.41;73.28
53506;BME280;39388;50.936;6.848;2023-03-03T01:00:58;101640.34;;;2.37;73.02
53506;BME280;39388;50.936;6.848;2023-03-03T01:03:29;101641.97;;;2.35;72.78
53506;BME280;39388;50.936;6.848;2023-03-03T01:05:59;101623.75;;;2.26;73.50
53506;BME280;39388;50.936;6.848;2023-03-03T01:08:29;101637.38;;;2.28;73.13
53506;BME280;39388;50.936;6.848;2023-03-03T01:11:08;101640.63;;;2.24;73.71
53506;BME280;39388;50.936;6.848;2023-03-03T01:13:42;101635.38;;;2.21;73.86
53506;BME280;39388;50.936;6.848;2023-03-03T01:16:13;101633.50;;;2.16;73.60
53506;BME280;39388;50.936;6.848;2023-03-03T01:18:44;101638.44;;;2.13;73.86
53506;BME280;39388;50.936;6.848;2023-03-03T01:21:15;101635.78;;;2.10;74.22
53506;BME280;39388;50.936;6.848;2023-03-03T01:23:45;101639.13;;;2.09;73.80
53506;BME280;39388;50.936;6.848;2023-03-03T01:26:15;101644.94;;;2.07;73.84
53506;BME280;39388;50.936;6.848;2023-03-03T01:28:46;101647.44;;;2.05;73.89
53506;BME280;39388;50.936;6.848;2023-03-03T01:31:16;101649.81;;;2.02;73.76
53506;BME280;39388;50.936;6.848;2023-03-03T01:33:46;101636.69;;;1.93;74.44
53506;BME280;39388;50.936;6.848;2023-03-03T01:36:23;101648.69;;;1.95;73.93
53506;BME280;39388;50.936;6.848;2023-03-03T01:38:53;101651.16;;;1.94;74.11
53506;BME280;39388;50.936;6.848;2023-03-03T01:41:28;101653.50;;;1.89;74.49
53506;BME280;39388;50.936;6.848;2023-03-03T01:43:59;101649.94;;;1.85;74.07
53506;BME280;39388;50.936;6.848;2023-03-03T01:47:12;101651.47;;;1.82;74.21
53506;BME280;39388;50.936;6.848;2023-03-03T01:49:35;101658.25;;;1.81;74.18
53506;BME280;39388;50.936;6.848;2023-03-03T01:52:13;101648.72;;;1.77;74.24
53506;BME280;39388;50.936;6.848;2023-03-03T01:54:51;101643.41;;;1.73;74.28
53506;BME280;39388;50.936;6.848;2023-03-03T01:57:27;101645.06;;;1.72;74.65
53506;BME280;39388;50.936;6.848;2023-03-03T02:00:01;101652.56;;;1.69;74.63
53506;BME280;39388;50.936;6.848;2023-03-03T02:02:33;101650.84;;;1.68;74.87
53506;BME280;39388;50.936;6.848;2023-03-03T02:05:05;101645.66;;;1.66;74.81
53506;BME280;39388;50.936;6.848;2023-03-03T02:07:36;101640.53;;;1.65;75.29
53506;BME280;39388;50.936;6.848;2023-03-03T02:10:13;101643.88;;;1.64;75.27
53506;BME280;39388;50.936;6.848;2023-03-03T02:12:49;101641.97;;;1.60;75.35
53506;BME280;39388;50.936;6.848;2023-03-03T02:17:56;101650.13;;;1.52;75.74
53506;BME280;39388;50.936;6.848;2023-03-03T02:23:28;101662.75;;;1.51;76.66
53506;BME280;39388;50.936;6.848;2023-03-03T02:26:14;101658.44;;;1.50;76.56
53506;BME280;39388;50.936;6.848;2023-03-03T02:28:45;101652.34;;;1.46;76.28
53506;BME280;39388;50.936;6.848;2023-03-03T02:31:19;101651.94;;;1.37;76.89
53506;BME280;39388;50.936;6.848;2023-03-03T02:33:52;101660.72;;;1.44;76.81
53506;BME280;39388;50.936;6.848;2023-03-03T02:36:25;101665.06;;;1.46;77.38
53506;BME280;39388;50.936;6.848;2023-03-03T02:39:19;101649.44;;;1.38;77.17
53506;BME280;39388;50.936;6.848;2023-03-03T02:44:31;101666.75;;;1.46;77.62
53506;BME280;39388;50.936;6.848;2023-03-03T02:47:02;101658.19;;;1.44;77.37
53506;BME280;39388;50.936;6.848;2023-03-03T02:49:34;101659.97;;;1.46;77.95
53506;BME280;39388;50.936;6.848;2023-03-03T02:52:07;101664.91;;;1.43;78.10
53506;BME280;39388;50.936;6.848;2023-03-03T02:54:39;101665.88;;;1.45;77.71
53506;BME280;39388;50.936;6.848;2023-03-03T02:57:09;101678.00;;;1.51;78.19
53506;BME280;39388;50.936;6.848;2023-03-03T02:59:40;101675.09;;;1.61;78.17
53506;BME280;39388;50.936;6.848;2023-03-03T03:02:10;101672.63;;;1.63;77.86
53506;BME280;39388;50.936;6.848;2023-03-03T03:04:41;101669.56;;;1.70;78.93
53506;BME280;39388;50.936;6.848;2023-03-03T03:07:11;101676.03;;;1.81;78.91
53506;BME280;39388;50.936;6.848;2023-03-03T03:09:42;101677.78;;;1.82;78.59
53506;BME280;39388;50.936;6.848;2023-03-03T03:12:12;101672.00;;;1.87;78.72
53506;BME280;39388;50.936;6.848;2023-03-03T03:14:43;101678.00;;;1.87;78.31
53506;BME280;39388;50.936;6.848;2023-03-03T03:17:14;101668.53;;;1.84;78.38
53506;BME280;39388;50.936;6.848;2023-03-03T03:19:44;101665.53;;;1.93;78.70
53506;BME280;39388;50.936;6.848;2023-03-03T03:22:14;101666.56;;;1.97;78.71
53506;BME280;39388;50.936;6.848;2023-03-03T03:24:45;101671.91;;;2.03;78.43
53506;BME280;39388;50.936;6.848;2023-03-03T03:27:15;101670.28;;;2.04;78.00
53506;BME280;39388;50.936;6.848;2023-03-03T03:29:45;101679.69;;;2.06;78.62
53506;BME280;39388;50.936;6.848;2023-03-03T03:32:16;101680.66;;;2.08;78.02
53506;BME280;39388;50.936;6.848;2023-03-03T03:34:47;101672.28;;;2.11;77.99
53506;BME280;39388;50.936;6.848;2023-03-03T03:37:17;101688.53;;;2.14;77.88
53506;BME280;39388;50.936;6.848;2023-03-03T03:39:48;101673.41;;;2.18;77.93
53506;BME280;39388;50.936;6.848;2023-03-03T03:42:18;101683.75;;;2.21;78.13
53506;BME280;39388;50.936;6.848;2023-03-03T03:44:48;101688.03;;;2.22;77.60
53506;BME280;39388;50.936;6.848;2023-03-03T03:47:20;101696.47;;;2.21;78.07
53506;BME280;39388;50.936;6.848;2023-03-03T03:49:50;101701.47;;;2.19;78.15
53506;BME280;39388;50.936;6.848;2023-03-03T03:52:20;101704.75;;;2.16;78.58
53506;BME280;39388;50.936;6.848;2023-03-03T03:54:51;101697.06;;;2.15;78.59
53506;BME280;39388;50.936;6.848;2023-03-03T03:57:21;101696.31;;;2.18;78.38
53506;BME280;39388;50.936;6.848;2023-03-03T03:59:52;101700.47;;;2.15;78.78
53506;BME280;39388;50.936;6.848;2023-03-03T04:02:22;101701.25;;;2.14;78.56
53506;BME280;39388;50.936;6.848;2023-03-03T04:04:52;101675.56;;;2.08;78.84
53506;BME280;39388;50.936;6.848;2023-03-03T04:07:23;101696.38;;;2.19;78.50
53506;BME280;39388;50.936;6.848;2023-03-03T04:09:53;101684.94;;;2.09;78.75
53506;BME280;39388;50.936;6.848;2023-03-03T04:12:24;101692.63;;;2.11;78.28
53506;BME280;39388;50.936;6.848;2023-03-03T04:14:54;101701.25;;;2.14;78.13
53506;BME280;39388;50.936;6.848;2023-03-03T04:17:24;101701.34;;;2.16;78.19
53506;BME280;39388;50.936;6.848;2023-03-03T04:19:55;101684.94;;;2.09;78.17
53506;BME280;39388;50.936;6.848;2023-03-03T04:22:25;101687.53;;;2.11;77.93
53506;BME280;39388;50.936;6.848;2023-03-03T04:24:55;101698.91;;;2.19;77.97
53506;BME280;39388;50.936;6.848;2023-03-03T04:27:26;101695.56;;;2.20;77.96
53506;BME280;39388;50.936;6.848;2023-03-03T04:29:56;101688.47;;;2.13;77.85
53506;BME280;39388;50.936;6.848;2023-03-03T04:32:26;101698.41;;;2.26;77.56
53506;BME280;39388;50.936;6.848;2023-03-03T04:34:57;101708.72;;;2.29;77.83
53506;BME280;39388;50.936;6.848;2023-03-03T04:37:27;101690.22;;;2.14;77.62
53506;BME280;39388;50.936;6.848;2023-03-03T04:39:58;101701.59;;;2.22;78.01
53506;BME280;39388;50.936;6.848;2023-03-03T04:42:28;101710.34;;;2.27;77.48
53506;BME280;39388;50.936;6.848;2023-03-03T04:44:59;101708.53;;;2.25;77.63
53506;BME280;39388;50.936;6.848;2023-03-03T04:47:30;101698.88;;;2.18;77.88
53506;BME280;39388;50.936;6.848;2023-03-03T04:50:01;101701.16;;;2.11;77.75
53506;BME280;39388;50.936;6.848;2023-03-03T04:52:32;101706.56;;;2.19;77.81
53506;BME280;39388;50.936;6.848;2023-03-03T04:55:03;101721.31;;;2.26;78.21
53506;BME280;39388;50.936;6.848;2023-03-03T04:57:34;101705.53;;;2.15;77.86
53506;BME280;39388;50.936;6.848;2023-03-03T05:00:08;101725.66;;;2.29;77.76
53506;BME280;39388;50.936;6.848;2023-03-03T05:02:39;101710.00;;;2.20;78.06
53506;BME280;39388;50.936;6.848;2023-03-03T05:05:10;101715.06;;;2.20;77.64
53506;BME280;39388;50.936;6.848;2023-03-03T05:07:40;101732.50;;;2.30;78.08
53506;BME280;39388;50.936;6.848;2023-03-03T05:10:11;101722.16;;;2.27;78.26
53506;BME280;39388;50.936;6.848;2023-03-03T05:12:42;101714.28;;;2.21;77.62
53506;BME280;39388;50.936;6.848;2023-03-03T05:15:13;101729.00;;;2.28;77.54
53506;BME280;39388;50.936;6.848;2023-03-03T05:17:43;101708.19;;;2.17;78.30
53506;BME280;39388;50.936;6.848;2023-03-03T05:20:14;101732.78;;;2.36;77.96
53506;BME280;39388;50.936;6.848;2023-03-03T05:22:44;101715.28;;;2.24;77.46
53506;BME280;39388;50.936;6.848;2023-03-03T05:25:14;101734.25;;;2.31;77.95
53506;BME280;39388;50.936;6.848;2023-03-03T05:27:45;101735.13;;;2.31;77.59
53506;BME280;39388;50.936;6.848;2023-03-03T05:30:15;101725.59;;;2.27;78.08
53506;BME280;39388;50.936;6.848;2023-03-03T05:32:46;101731.69;;;2.31;77.91
53506;BME280;39388;50.936;6.848;2023-03-03T05:35:16;101713.53;;;2.23;77.85
53506;BME280;39388;50.936;6.848;2023-03-03T05:37:47;101719.50;;;2.24;77.77
53506;BME280;39388;50.936;6.848;2023-03-03T05:40:18;101731.56;;;2.28;77.91
53506;BME280;39388;50.936;6.848;2023-03-03T05:42:49;101745.50;;;2.36;77.85
53506;BME280;39388;50.936;6.848;2023-03-03T05:45:20;101715.56;;;2.12;78.11
53506;BME280;39388;50.936;6.848;2023-03-03T05:47:51;101735.56;;;2.23;78.29
53506;BME280;39388;50.936;6.848;2023-03-03T05:50:22;101732.28;;;2.25;77.91
53506;BME280;39388;50.936;6.848;2023-03-03T05:52:53;101746.97;;;2.31;78.32
53506;BME280;39388;50.936;6.848;2023-03-03T05:55:24;101746.16;;;2.32;77.82
53506;BME280;39388;50.936;6.848;2023-03-03T05:57:54;101746.22;;;2.34;77.75
53506;BME280;39388;50.936;6.848;2023-03-03T06:00:25;101739.34;;;2.31;78.17
53506;BME280;39388;50.936;6.848;2023-03-03T06:02:55;101722.72;;;2.20;77.82
53506;BME280;39388;50.936;6.848;2023-03-03T06:05:26;101733.19;;;2.26;78.14
53506;BME280;39388;50.936;6.848;2023-03-03T06:07:56;101744.38;;;2.29;78.20
53506;BME280;39388;50.936;6.848;2023-03-03T06:10:26;101751.25;;;2.32;78.15
53506;BME280;39388;50.936;6.848;2023-03-03T06:12:57;101736.59;;;2.26;77.93
53506;BME280;39388;50.936;6.848;2023-03-03T06:15:28;101738.28;;;2.26;78.16
53506;BME280;39388;50.936;6.848;2023-03-03T06:17:58;101753.16;;;2.36;78.13
53506;BME280;39388;50.936;6.848;2023-03-03T06:20:28;101763.59;;;2.42;78.09
53506;BME280;39388;50.936;6.848;2023-03-03T06:22:59;101749.81;;;2.37;77.81
53506;BME280;39388;50.936;6.848;2023-03-03T06:25:30;101760.09;;;2.40;77.90
53506;BME280;39388;50.936;6.848;2023-03-03T06:28:01;101757.34;;;2.36;77.92
53506;BME280;39388;50.936;6.848;2023-03-03T06:30:32;101770.44;;;2.43;78.08
53506;BME280;39388;50.936;6.848;2023-03-03T06:33:02;101748.84;;;2.35;77.97
53506;BME280;39388;50.936;6.848;2023-03-03T06:35:32;101757.69;;;2.43;77.92
53506;BME280;39388;50.936;6.848;2023-03-03T06:38:03;101751.66;;;2.41;77.71
53506;BME280;39388;50.936;6.848;2023-03-03T06:40:33;101756.50;;;2.35;77.83
53506;BME280;39388;50.936;6.848;2023-03-03T06:43:03;101759.69;;;2.31;78.11
53506;BME280;39388;50.936;6.848;2023-03-03T06:45:34;101773.31;;;2.31;77.75
53506;BME280;39388;50.936;6.848;2023-03-03T06:48:04;101776.13;;;2.38;77.82
53506;BME280;39388;50.936;6.848;2023-03-03T06:50:35;101784.56;;;2.37;77.93
53506;BME280;39388;50.936;6.848;2023-03-03T06:53:16;101789.59;;;2.35;78.00
53506;BME280;39388;50.936;6.848;2023-03-03T06:55:47;101791.34;;;2.36;78.07
53506;BME280;39388;50.936;6.848;2023-03-03T06:58:20;101807.91;;;2.46;78.00
53506;BME280;39388;50.936;6.848;2023-03-03T07:00:52;101825.25;;;2.55;77.97
53506;BME280;39388;50.936;6.848;2023-03-03T07:03:32;101822.59;;;2.52;77.45
53506;BME280;39388;50.936;6.848;2023-03-03T07:06:14;101823.38;;;2.51;77.25
53506;BME280;39388;50.936;6.848;2023-03-03T07:08:46;101825.25;;;2.55;77.11
53506;BME280;39388;50.936;6.848;2023-03-03T07:11:20;101820.03;;;2.52;77.14
53506;BME280;39388;50.936;6.848;2023-03-03T07:13:53;101827.72;;;2.53;77.06
53506;BME280;39388;50.936;6.848;2023-03-03T07:16:26;101827.88;;;2.56;77.47
53506;BME280;39388;50.936;6.848;2023-03-03T07:18:59;101819.16;;;2.51;77.06
53506;BME280;39388;50.936;6.848;2023-03-03T07:21:35;101830.13;;;2.50;77.31
53506;BME280;39388;50.936;6.848;2023-03-03T07:24:26;101832.81;;;2.53;77.46
53506;BME280;39388;50.936;6.848;2023-03-03T07:29:40;101826.19;;;2.57;77.06
53506;BME280;39388;50.936;6.848;2023-03-03T07:32:23;101827.13;;;2.59;76.60
53506;BME280;39388;50.936;6.848;2023-03-03T07:34:55;101842.97;;;2.71;77.47
53506;BME280;39388;50.936;6.848;2023-03-03T07:37:37;101839.41;;;2.68;76.90
53506;BME280;39388;50.936;6.848;2023-03-03T07:41:09;101844.53;;;2.68;76.64
53506;BME280;39388;50.936;6.848;2023-03-03T07:43:42;101849.91;;;2.74;76.75
53506;BME280;39388;50.936;6.848;2023-03-03T07:48:52;101862.84;;;2.79;76.84
53506;BME280;39388;50.936;6.848;2023-03-03T07:51:27;101862.03;;;2.80;76.78
53506;BME280;39388;50.936;6.848;2023-03-03T07:54:25;101859.50;;;2.80;76.59
53506;BME280;39388;50.936;6.848;2023-03-03T07:57:18;101847.13;;;2.69;76.84
53506;BME280;39388;50.936;6.848;2023-03-03T07:59:54;101855.91;;;2.76;76.76
53506;BME280;39388;50.936;6.848;2023-03-03T08:02:54;101859.34;;;2.76;76.76
53506;BME280;39388;50.936;6.848;2023-03-03T08:11:00;101852.00;;;2.83;76.08
53506;BME280;39388;50.936;6.848;2023-03-03T08:23:41;101863.53;;;2.94;76.22
53506;BME280;39388;50.936;6.848;2023-03-03T08:26:12;101868.84;;;2.99;75.88
53506;BME280;39388;50.936;6.848;2023-03-03T08:28:43;101882.72;;;3.05;76.26
53506;BME280;39388;50.936;6.848;2023-03-03T08:31:13;101875.72;;;3.01;75.83
53506;BME280;39388;50.936;6.848;2023-03-03T08:33:44;101881.03;;;3.06;75.92
53506;BME280;39388;50.936;6.848;2023-03-03T08:36:15;101884.63;;;3.10;75.90
53506;BME280;39388;50.936;6.848;2023-03-03T08:38:45;101902.19;;;3.23;75.34
53506;BME280;39388;50.936;6.848;2023-03-03T08:41:15;101892.66;;;3.19;75.35
53506;BME280;39388;50.936;6.848;2023-03-03T08:43:46;101884.81;;;3.14;75.42
53506;BME280;39388;50.936;6.848;2023-03-03T08:46:16;101900.34;;;3.20;75.53
53506;BME280;39388;50.936;6.848;2023-03-03T08:48:46;101895.25;;;3.20;75.52
53506;BME280;39388;50.936;6.848;2023-03-03T08:51:17;101903.06;;;3.23;75.02
53506;BME280;39388;50.936;6.848;2023-03-03T08:53:47;101894.34;;;3.18;75.47
53506;BME280;39388;50.936;6.848;2023-03-03T08:56:17;101879.63;;;3.13;75.53
53506;BME280;39388;50.936;6.848;2023-03-03T08:58:48;101900.78;;;3.30;75.01
53506;BME280;39388;50.936;6.848;2023-03-03T09:01:18;101905.94;;;3.31;75.28
53506;BME280;39388;50.936;6.848;2023-03-03T09:03:49;101900.66;;;3.27;75.31
53506;BME280;39388;50.936;6.848;2023-03-03T09:06:19;101896.22;;;3.22;74.86
53506;BME280;39388;50.936;6.848;2023-03-03T09:08:49;101916.09;;;3.30;74.85
53506;BME280;39388;50.936;6.848;2023-03-03T09:11:25;101911.66;;;3.26;75.17
53506;BME280;39388;50.936;6.848;2023-03-03T09:14:10;101917.75;;;3.29;75.12
53506;BME280;39388;50.936;6.848;2023-03-03T09:16:50;101916.13;;;3.31;74.83
53506;BME280;39388;50.936;6.848;2023-03-03T09:19:32;101915.53;;;3.37;75.00
53506;BME280;39388;50.936;6.848;2023-03-03T09:22:31;101932.13;;;3.47;74.64
53506;BME280;39388;50.936;6.848;2023-03-03T09:25:17;101926.22;;;3.48;75.02
53506;BME280;39388;50.936;6.848;2023-03-03T09:27:52;101932.59;;;3.58;74.42
53506;BME280;39388;50.936;6.848;2023-03-03T09:36:02;101932.13;;;3.66;74.24
53506;BME280;39388;50.936;6.848;2023-03-03T09:38:34;101905.41;;;3.58;74.83
53506;BME280;39388;50.936;6.848;2023-03-03T09:46:31;101930.66;;;3.93;74.00
53506;BME280;39388;50.936;6.848;2023-03-03T10:00:44;101958.56;;;4.09;73.68
53506;BME280;39388;50.936;6.848;2023-03-03T10:22:54;101960.81;;;4.44;72.10
53506;BME280;39388;50.936;6.848;2023-03-03T10:25:28;101956.78;;;4.49;72.40
53506;BME280;39388;50.936;6.848;2023-03-03T10:29:25;101952.78;;;4.56;72.25
53506;BME280;39388;50.936;6.848;2023-03-03T10:34:28;101944.00;;;4.70;71.25
53506;BME280;39388;50.936;6.848;2023-03-03T10:37:30;101957.28;;;4.84;71.09
53506;BME280;39388;50.936;6.848;2023-03-03T10:43:00;101962.53;;;4.87;71.15
53506;BME280;39388;50.936;6.848;2023-03-03T10:46:07;101961.88;;;4.93;71.29
53506;BME280;39388;50.936;6.848;2023-03-03T10:48:56;101962.19;;;5.01;70.50
53506;BME280;39388;50.936;6.848;2023-03-03T10:55:20;101943.34;;;4.99;70.50
53506;BME280;39388;50.936;6.848;2023-03-03T11:05:57;101960.03;;;5.12;69.30
53506;BME280;39388;50.936;6.848;2023-03-03T11:08:35;101951.50;;;5.11;69.06
53506;BME280;39388;50.936;6.848;2023-03-03T11:11:28;101963.03;;;5.24;68.85
53506;BME280;39388;50.936;6.848;2023-03-03T11:14:12;101965.78;;;5.29;69.05
53506;BME280;39388;50.936;6.848;2023-03-03T11:19:33;101964.72;;;5.46;68.81
53506;BME280;39388;50.936;6.848;2023-03-03T11:25:34;101962.44;;;5.54;68.48
53506;BME280;39388;50.936;6.848;2023-03-03T11:28:24;101962.31;;;5.51;68.74
53506;BME280;39388;50.936;6.848;2023-03-03T11:31:09;101932.75;;;5.35;68.50
53506;BME280;39388;50.936;6.848;2023-03-03T11:34:02;101959.75;;;5.51;68.47
53506;BME280;39388;50.936;6.848;2023-03-03T11:36:44;101950.00;;;5.41;68.26
53506;BME280;39388;50.936;6.848;2023-03-03T11:39:23;101944.25;;;5.46;67.96
53506;BME280;39388;50.936;6.848;2023-03-03T11:45:12;101926.59;;;5.54;68.18
53506;BME280;39388;50.936;6.848;2023-03-03T11:48:32;101945.84;;;5.67;68.01
53506;BME280;39388;50.936;6.848;2023-03-03T11:50:40;101937.94;;;5.61;67.50
53506;BME280;39388;50.936;6.848;2023-03-03T11:56:04;101936.84;;;5.54;67.22
53506;BME280;39388;50.936;6.848;2023-03-03T11:58:43;101948.00;;;5.56;67.23
53506;BME280;39388;50.936;6.848;2023-03-03T12:01:18;101938.59;;;5.55;67.79
53506;BME280;39388;50.936;6.848;2023-03-03T12:03:53;101938.09;;;5.65;67.32
53506;BME280;39388;50.936;6.848;2023-03-03T12:12:22;101904.00;;;5.66;67.12
53506;BME280;39388;50.936;6.848;2023-03-03T12:18:14;101921.63;;;5.83;67.06
53506;BME280;39388;50.936;6.848;2023-03-03T12:32:49;101904.28;;;5.74;67.62
53506;BME280;39388;50.936;6.848;2023-03-03T12:36:09;101918.03;;;5.78;66.90
53506;BME280;39388;50.936;6.848;2023-03-03T12:39:05;101900.78;;;5.72;66.36
53506;BME280;39388;50.936;6.848;2023-03-03T12:41:50;101910.47;;;5.81;66.59
53506;BME280;39388;50.936;6.848;2023-03-03T12:44:40;101913.25;;;5.87;66.92
53506;BME280;39388;50.936;6.848;2023-03-03T12:47:26;101889.88;;;5.78;66.55
53506;BME280;39388;50.936;6.848;2023-03-03T12:52:53;101906.66;;;5.94;66.92
53506;BME280;39388;50.936;6.848;2023-03-03T12:58:23;101889.03;;;5.77;66.33
53506;BME280;39388;50.936;6.848;2023-03-03T13:04:40;101908.94;;;5.86;66.37
53506;BME280;39388;50.936;6.848;2023-03-03T13:20:43;101911.09;;;5.99;66.53
53506;BME280;39388;50.936;6.848;2023-03-03T13:23:40;101898.19;;;5.96;66.17
53506;BME280;39388;50.936;6.848;2023-03-03T13:32:28;101887.53;;;5.84;65.74
53506;BME280;39388;50.936;6.848;2023-03-03T13:35:07;101904.28;;;6.00;66.52
53506;BME280;39388;50.936;6.848;2023-03-03T13:37:44;101895.72;;;5.99;66.11
53506;BME280;39388;50.936;6.848;2023-03-03T13:40:18;101894.81;;;5.97;66.32
53506;BME280;39388;50.936;6.848;2023-03-03T13:42:56;101890.75;;;6.04;66.11
53506;BME280;39388;50.936;6.848;2023-03-03T13:50:52;101895.53;;;6.19;65.93
53506;BME280;39388;50.936;6.848;2023-03-03T13:59:01;101889.41;;;6.16;65.81
53506;BME280;39388;50.936;6.848;2023-03-03T14:04:48;101882.72;;;6.19;64.52
53506;BME280;39388;50.936;6.848;2023-03-03T14:10:18;101873.94;;;6.12;65.24
53506;BME280;39388;50.936;6.848;2023-03-03T14:15:26;101873.88;;;6.09;64.93
53506;BME280;39388;50.936;6.848;2023-03-03T14:20:49;101831.38;;;5.89;65.25
53506;BME280;39388;50.936;6.848;2023-03-03T14:23:58;101882.94;;;6.27;64.51
53506;BME280;39388;50.936;6.848;2023-03-03T14:27:32;101784.13;;;5.79;64.90
53506;BME280;39388;50.936;6.848;2023-03-03T14:30:47;101834.56;;;6.09;64.54
53506;BME280;39388;50.936;6.848;2023-03-03T14:33:29;101762.44;;;5.67;65.09
53506;BME280;39388;50.936;6.848;2023-03-03T14:36:38;101827.38;;;5.97;64.54
53506;BME280;39388;50.936;6.848;2023-03-03T14:39:44;101794.28;;;5.76;64.41
53506;BME280;39388;50.936;6.848;2023-03-03T14:42:54;101874.16;;;6.19;65.32
53506;BME280;39388;50.936;6.848;2023-03-03T14:49:33;101797.31;;;5.64;64.03
53506;BME280;39388;50.936;6.848;2023-03-03T14:52:30;101814.03;;;5.54;64.83
53506;BME280;39388;50.936;6.848;2023-03-03T14:55:35;101826.94;;;5.57;64.71
53506;BME280;39388;50.936;6.848;2023-03-03T14:58:31;101841.47;;;5.58;65.41
53506;BME280;39388;50.936;6.848;2023-03-03T15:01:40;101854.38;;;5.61;66.11
53506;BME280;39388;50.936;6.848;2023-03-03T15:06:48;101837.28;;;5.60;66.13
53506;BME280;39388;50.936;6.848;2023-03-03T15:15:24;101773.34;;;5.10;65.73
53506;BME280;39388;50.936;6.848;2023-03-03T15:18:00;101790.91;;;5.25;66.24
53506;BME280;39388;50.936;6.848;2023-03-03T15:21:17;101824.78;;;5.44;65.38
53506;BME280;39388;50.936;6.848;2023-03-03T15:24:09;101784.47;;;5.12;66.14
53506;BME280;39388;50.936;6.848;2023-03-03T15:27:05;101780.75;;;5.02;66.27
53506;BME280;39388;50.936;6.848;2023-03-03T15:30:03;101837.19;;;5.33;66.37
53506;BME280;39388;50.936;6.848;2023-03-03T15:32:48;101837.09;;;5.30;66.59
53506;BME280;39388;50.936;6.848;2023-03-03T15:35:51;101806.31;;;5.02;66.82
53506;BME280;39388;50.936;6.848;2023-03-03T15:41:35;101845.75;;;5.09;67.18
53506;BME280;39388;50.936;6.848;2023-03-03T15:53:00;101817.91;;;4.93;68.13
53506;BME280;39388;50.936;6.848;2023-03-03T15:56:14;101840.66;;;5.09;67.40
53506;BME280;39388;50.936;6.848;2023-03-03T16:02:19;101776.56;;;4.80;67.71
53506;BME280;39388;50.936;6.848;2023-03-03T16:05:02;101780.91;;;4.83;67.95
53506;BME280;39388;50.936;6.848;2023-03-03T16:07:57;101828.72;;;5.10;67.95
53506;BME280;39388;50.936;6.848;2023-03-03T16:10:55;101777.59;;;4.85;68.53
53506;BME280;39388;50.936;6.848;2023-03-03T16:23:44;101802.41;;;4.88;68.23
53506;BME280;39388;50.936;6.848;2023-03-03T16:37:17;101821.78;;;4.83;69.15
53506;BME280;39388;50.936;6.848;2023-03-03T16:40:18;101730.38;;;4.27;68.76
53506;BME280;39388;50.936;6.848;2023-03-03T16:43:03;101833.59;;;4.79;68.50
53506;BME280;39388;50.936;6.848;2023-03-03T17:18:11;101887.53;;;4.20;71.50
53506;BME280;39388;50.936;6.848;2023-03-03T17:25:27;101886.28;;;4.10;71.32
53506;BME280;39388;50.936;6.848;2023-03-03T17:56:27;101796.84;;;3.03;72.74
53506;BME280;39388;50.936;6.848;2023-03-03T18:15:18;101913.47;;;3.48;72.88
53506;BME280;39388;50.936;6.848;2023-03-03T18:21:24;101907.97;;;3.38;73.31
53506;BME280;39388;50.936;6.848;2023-03-03T18:24:38;101916.41;;;3.37;73.41
53506;BME280;39388;50.936;6.848;2023-03-03T18:27:35;101809.81;;;2.70;73.29
53506;BME280;39388;50.936;6.848;2023-03-03T18:30:26;101914.19;;;3.26;73.58
53506;BME280;39388;50.936;6.848;2023-03-03T18:33:08;101845.28;;;2.85;73.45
53506;BME280;39388;50.936;6.848;2023-03-03T18:45:56;101794.31;;;2.27;73.74
53506;BME280;39388;50.936;6.848;2023-03-03T18:48:57;101931.34;;;3.10;74.21
53506;BME280;39388;50.936;6.848;2023-03-03T19:07:18;101939.16;;;2.95;74.48
53506;BME280;39388;50.936;6.848;2023-03-03T19:09:57;101937.34;;;2.92;75.05
53506;BME280;39388;50.936;6.848;2023-03-03T19:12:42;101947.47;;;2.91;75.07
53506;BME280;39388;50.936;6.848;2023-03-03T19:15:42;101935.03;;;2.79;75.15
53506;BME280;39388;50.936;6.848;2023-03-03T19:26:38;101953.66;;;2.78;75.18
53506;BME280;39388;50.936;6.848;2023-03-03T19:35:11;101955.03;;;2.71;75.30
53506;BME280;39388;50.936;6.848;2023-03-03T19:38:01;101954.91;;;2.68;75.31
53506;BME280;39388;50.936;6.848;2023-03-03T19:40:53;101961.59;;;2.66;75.26
53506;BME280;39388;50.936;6.848;2023-03-03T19:43:50;101954.59;;;2.62;75.27
53506;BME280;39388;50.936;6.848;2023-03-03T20:09:54;101944.72;;;2.68;75.15
53506;BME280;39388;50.936;6.848;2023-03-03T20:12:36;101954.31;;;2.74;75.30
53506;BME280;39388;50.936;6.848;2023-03-03T20:15:23;101947.41;;;2.71;75.01